createdAt,value
2023-02-04T00:02:49.450Z,23.25
2023-02-04T00:07:54.231Z,17.75
2023-02-04T00:12:59.001Z,17.75
2023-02-04T00:18:04.567Z,17.25
2023-02-04T00:23:09.346Z,23.00
2023-02-04T00:28:14.386Z,41.50
2023-02-04T00:33:19.055Z,38.50
2023-02-04T00:38:24.471Z,35.50
2023-02-04T00:43:29.213Z,33.25
2023-02-04T00:48:35.853Z,32.25
2023-02-04T00:53:40.425Z,33.25
2023-02-04T00:58:45.143Z,30.75
2023-02-04T01:03:49.694Z,22.25
2023-02-04T01:08:54.239Z,28.25
2023-02-04T01:14:00.705Z,27.00
2023-02-04T01:19:05.651Z,28.75
2023-02-04T01:24:11.383Z,26.50
2023-02-04T01:29:36.012Z,23.25
2023-02-04T01:34:40.673Z,25.00
2023-02-04T01:39:45.438Z,34.75
2023-02-04T01:44:50.734Z,30.25
2023-02-04T01:49:56.455Z,33.25
2023-02-04T01:55:01.227Z,32.00
2023-02-04T02:00:09.420Z,31.50
2023-02-04T02:05:22.528Z,29.25
2023-02-04T02:10:28.369Z,32.00
2023-02-04T02:15:33.235Z,29.50
2023-02-04T02:20:38.583Z,28.25
2023-02-04T02:25:43.761Z,28.50
2023-02-04T02:30:50.492Z,25.25
2023-02-04T02:36:00.261Z,25.00
2023-02-04T02:41:17.740Z,24.25
2023-02-04T02:46:22.733Z,25.00
2023-02-04T02:51:27.343Z,21.00
2023-02-04T02:56:33.682Z,18.00
2023-02-04T03:01:38.713Z,23.00
2023-02-04T03:06:44.636Z,22.25
2023-02-04T03:11:50.379Z,20.25
2023-02-04T03:16:56.627Z,20.75
2023-02-04T03:22:02.057Z,18.00
2023-02-04T03:27:07.198Z,18.50
2023-02-04T03:32:12.355Z,19.00
2023-02-04T03:37:17.288Z,19.50
2023-02-04T03:42:22.169Z,22.25
2023-02-04T03:47:26.996Z,16.75
2023-02-04T03:52:31.420Z,22.25
2023-02-04T03:57:35.919Z,13.75
2023-02-04T04:02:41.412Z,18.25
2023-02-04T04:07:46.698Z,18.75
2023-02-04T04:12:51.680Z,18.50
2023-02-04T04:17:56.459Z,15.25
2023-02-04T04:23:01.498Z,14.75
2023-02-04T04:28:06.394Z,15.50
2023-02-04T04:33:11.585Z,13.00
2023-02-04T04:38:16.516Z,10.75
2023-02-04T04:43:22.514Z,17.50
2023-02-04T04:48:27.459Z,11.75
2023-02-04T04:53:32.231Z,13.00
2023-02-04T04:58:37.334Z,11.25
2023-02-04T05:03:42.381Z,17.25
2023-02-04T05:08:47.409Z,13.50
2023-02-04T05:13:51.941Z,13.25
2023-02-04T05:18:56.603Z,12.25
2023-02-04T05:24:01.724Z,10.25
2023-02-04T05:29:08.278Z,13.00
2023-02-04T05:34:13.939Z,8.50
2023-02-04T05:39:18.684Z,11.25
2023-02-04T05:44:25.472Z,8.25
2023-02-04T05:49:31.630Z,11.25
2023-02-04T05:54:36.510Z,8.25
2023-02-04T05:59:41.850Z,10.00
2023-02-04T06:04:47.173Z,8.25
2023-02-04T06:09:54.581Z,8.50
2023-02-04T06:14:59.284Z,8.00
2023-02-04T06:20:05.417Z,7.00
2023-02-04T06:25:10.718Z,10.00
2023-02-04T06:30:17.521Z,8.50
2023-02-04T06:35:22.477Z,7.75
2023-02-04T06:40:27.377Z,11.50
2023-02-04T06:45:35.077Z,8.75
2023-02-04T06:50:40.232Z,10.25
2023-02-04T06:55:45.274Z,10.25
2023-02-04T07:00:50.833Z,14.00
2023-02-04T07:05:55.775Z,10.25
2023-02-04T07:11:00.426Z,8.25
2023-02-04T07:16:05.370Z,7.75
2023-02-04T07:21:09.980Z,13.00
2023-02-04T07:26:14.483Z,7.25
2023-02-04T07:31:19.137Z,6.50
2023-02-04T07:36:23.978Z,10.00
2023-02-04T07:41:28.578Z,7.50
2023-02-04T07:46:33.182Z,9.00
2023-02-04T07:51:37.810Z,10.75
2023-02-04T07:56:42.408Z,10.75
2023-02-04T08:01:51.194Z,9.00
2023-02-04T08:06:55.972Z,8.50
2023-02-04T08:12:01.747Z,8.00
2023-02-04T08:17:06.541Z,9.00
2023-02-04T08:22:12.294Z,8.25
2023-02-04T08:27:17.011Z,8.75
2023-02-04T08:32:21.556Z,8.50
2023-02-04T08:37:26.103Z,8.00
2023-02-04T08:42:30.935Z,10.75
2023-02-04T08:47:36.125Z,7.75
2023-02-04T08:52:41.199Z,8.00
2023-02-04T08:57:46.157Z,9.50
2023-02-04T09:02:51.129Z,9.00
2023-02-04T09:07:56.665Z,8.50
2023-02-04T09:13:01.414Z,6.00
2023-02-04T09:18:15.522Z,5.50
2023-02-04T09:23:21.010Z,5.25
2023-02-04T09:28:25.973Z,8.50
2023-02-04T09:33:30.957Z,4.00
2023-02-04T09:38:36.081Z,3.00
2023-02-04T09:43:47.761Z,7.50
2023-02-04T09:48:52.928Z,7.75
2023-02-04T09:54:05.711Z,10.25
2023-02-04T09:59:14.947Z,12.50
2023-02-04T10:04:19.942Z,15.25
2023-02-04T10:09:24.849Z,12.25
2023-02-04T10:14:29.238Z,14.00
2023-02-04T10:19:33.885Z,16.75
2023-02-04T10:24:40.074Z,15.75
2023-02-04T10:29:45.674Z,20.25
2023-02-04T10:34:50.540Z,19.00
2023-02-04T10:39:55.392Z,20.75
2023-02-04T10:45:00.032Z,21.25
2023-02-04T10:50:07.698Z,23.00
2023-02-04T10:55:16.833Z,21.75
2023-02-04T11:00:21.765Z,25.50
2023-02-04T11:05:31.415Z,22.25
2023-02-04T11:10:37.756Z,21.00
2023-02-04T11:15:42.412Z,18.25
2023-02-04T11:20:47.441Z,23.25
2023-02-04T11:26:03.242Z,17.00
2023-02-04T11:31:15.233Z,15.75
2023-02-04T11:36:20.240Z,17.25
2023-02-04T11:41:30.757Z,19.25
2023-02-04T11:46:36.668Z,18.50
2023-02-04T11:51:42.200Z,16.75
2023-02-04T11:56:48.251Z,13.25
2023-02-04T12:01:53.200Z,12.25
2023-02-04T12:07:05.196Z,11.75
2023-02-04T12:12:12.821Z,14.25
2023-02-04T12:17:18.629Z,18.00
2023-02-04T12:22:23.587Z,14.50
2023-02-04T12:27:28.478Z,16.00
2023-02-04T12:32:33.313Z,15.50
2023-02-04T12:37:38.558Z,15.25
2023-02-04T12:42:43.552Z,14.75
2023-02-04T12:47:48.466Z,12.50
2023-02-04T12:52:57.196Z,12.00
2023-02-04T12:58:03.194Z,21.25
2023-02-04T13:03:09.990Z,13.00
2023-02-04T13:08:17.133Z,20.50
2023-02-04T13:13:22.039Z,16.75
2023-02-04T13:18:26.552Z,14.75
2023-02-04T13:23:31.047Z,18.50
2023-02-04T13:28:35.466Z,24.50
2023-02-04T13:33:40.018Z,23.25
2023-02-04T13:38:44.601Z,22.50
2023-02-04T13:43:51.069Z,20.00
2023-02-04T13:48:55.588Z,18.25
2023-02-04T13:54:02.828Z,17.00
2023-02-04T13:59:08.987Z,20.50
2023-02-04T14:04:13.530Z,19.00
2023-02-04T14:09:20.803Z,18.25
2023-02-04T14:14:25.768Z,18.00
2023-02-04T14:19:30.479Z,16.25
2023-02-04T14:24:35.052Z,17.25
2023-02-04T14:29:39.523Z,15.75
2023-02-04T14:34:44.278Z,15.50
2023-02-04T14:39:51.427Z,15.00
2023-02-04T14:44:56.626Z,14.25
2023-02-04T14:50:01.130Z,25.00
2023-02-04T14:55:05.758Z,22.50
2023-02-04T15:00:10.590Z,31.50
2023-02-04T15:05:18.566Z,26.75
2023-02-04T15:10:24.372Z,31.50
2023-02-04T15:15:29.347Z,31.00
2023-02-04T15:20:37.969Z,29.50
2023-02-04T15:25:44.134Z,29.00
2023-02-04T15:30:48.816Z,29.25
2023-02-04T15:35:53.510Z,30.75
2023-02-04T15:40:58.232Z,28.00
2023-02-04T15:46:04.774Z,31.75
2023-02-04T15:51:10.281Z,32.75
2023-02-04T15:56:14.927Z,29.00
2023-02-04T16:01:19.630Z,35.75
2023-02-04T16:06:24.942Z,30.75
2023-02-04T16:11:32.898Z,30.50
2023-02-04T16:16:38.520Z,34.25
2023-02-04T16:21:46.407Z,33.50
2023-02-04T16:26:50.999Z,32.75
2023-02-04T16:31:55.643Z,35.00
2023-02-04T16:37:00.542Z,33.50
2023-02-04T16:42:06.307Z,32.75
2023-02-04T16:47:11.103Z,31.25
2023-02-04T16:52:18.437Z,32.25
2023-02-04T16:57:23.984Z,33.00
2023-02-04T17:02:28.653Z,30.25
2023-02-04T17:07:32.950Z,33.75
2023-02-04T17:12:37.305Z,31.25
2023-02-04T17:17:41.610Z,37.50
2023-02-04T17:22:45.962Z,32.00
2023-02-04T17:27:52.608Z,31.75
2023-02-04T17:32:56.928Z,33.25
2023-02-04T17:38:02.562Z,36.75
2023-02-04T17:43:08.687Z,32.75
2023-02-04T17:48:13.010Z,37.25
2023-02-04T17:53:17.286Z,33.75
2023-02-04T17:58:25.712Z,35.50
2023-02-04T18:03:30.834Z,32.75
2023-02-04T18:08:40.182Z,36.25
2023-02-04T18:13:44.781Z,37.25
2023-02-04T18:18:49.254Z,40.00
2023-02-04T18:24:02.861Z,37.25
2023-02-04T18:29:18.380Z,38.50
2023-02-04T18:34:28.520Z,33.00
2023-02-04T18:39:34.773Z,34.50
2023-02-04T18:44:42.226Z,31.50
2023-02-04T18:49:46.327Z,36.75
2023-02-04T18:54:55.008Z,36.00
2023-02-04T19:00:20.534Z,37.75
2023-02-04T19:05:28.521Z,35.25
2023-02-04T19:10:38.421Z,34.75
2023-02-04T19:15:42.640Z,38.00
2023-02-04T19:20:46.887Z,35.75
2023-02-04T19:25:52.521Z,41.00
2023-02-04T19:31:04.393Z,35.25
2023-02-04T19:36:26.903Z,34.75
2023-02-04T19:41:35.120Z,35.25
2023-02-04T19:46:39.258Z,32.75
2023-02-04T19:51:43.339Z,35.25
2023-02-04T19:56:47.803Z,35.75
2023-02-04T20:02:00.096Z,38.50
2023-02-04T20:07:04.276Z,35.00
2023-02-04T20:12:15.527Z,37.50
2023-02-04T20:17:21.501Z,38.25
2023-02-04T20:22:41.584Z,38.00
2023-02-04T20:27:45.717Z,38.25
2023-02-04T20:32:54.115Z,37.50
2023-02-04T20:37:59.749Z,32.75
2023-02-04T20:43:25.413Z,38.75
2023-02-04T20:48:29.527Z,39.25
2023-02-04T20:53:39.566Z,43.75
2023-02-04T20:58:44.770Z,45.00
2023-02-04T21:03:50.645Z,44.00
2023-02-04T21:08:56.437Z,41.75
2023-02-04T21:14:01.082Z,45.00
2023-02-04T21:19:05.878Z,42.25
2023-02-04T21:24:10.887Z,45.25
2023-02-04T21:29:15.847Z,46.25
2023-02-04T21:34:20.502Z,44.00
2023-02-04T21:39:25.855Z,40.00
2023-02-04T21:44:30.393Z,44.50
2023-02-04T21:49:36.402Z,44.00
2023-02-04T21:54:42.108Z,40.50
2023-02-04T21:59:49.622Z,42.25
2023-02-04T22:04:54.281Z,43.75
2023-02-04T22:09:58.888Z,44.25
2023-02-04T22:15:25.471Z,43.00
2023-02-04T22:20:29.473Z,44.25
2023-02-04T22:25:33.834Z,44.50
2023-02-04T22:30:39.126Z,45.75
2023-02-04T22:35:43.364Z,42.75
2023-02-04T22:40:49.585Z,42.25
2023-02-04T22:45:53.638Z,44.00
2023-02-04T22:50:57.887Z,44.75
2023-02-04T22:56:02.190Z,44.25
2023-02-04T23:01:06.567Z,42.75
2023-02-04T23:06:10.985Z,44.25
2023-02-04T23:11:15.279Z,41.00
2023-02-04T23:16:20.834Z,39.00
2023-02-04T23:21:26.051Z,38.00
2023-02-04T23:26:30.916Z,43.50
2023-02-04T23:31:35.626Z,40.00
2023-02-04T23:36:40.360Z,40.50
2023-02-04T23:41:45.256Z,41.50
2023-02-04T23:46:49.844Z,40.00
2023-02-04T23:51:54.500Z,41.25
2023-02-04T23:56:59.043Z,40.25
